createdAt,value
2018-12-14T00:01:32.764Z,3.53
2018-12-14T00:04:01.425Z,3.57
2018-12-14T00:06:30.054Z,3.53
2018-12-14T00:08:58.775Z,2.97
2018-12-14T00:11:27.612Z,3.57
2018-12-14T00:13:56.234Z,3.80
2018-12-14T00:16:24.830Z,3.30
2018-12-14T00:18:53.456Z,3.50
2018-12-14T00:21:22.088Z,4.07
2018-12-14T00:23:50.955Z,3.77
2018-12-14T00:26:19.565Z,3.90
2018-12-14T00:28:48.185Z,3.40
2018-12-14T00:31:16.888Z,3.43
2018-12-14T00:33:45.506Z,3.37
2018-12-14T00:36:14.116Z,3.30
2018-12-14T00:38:42.876Z,3.60
2018-12-14T00:41:11.464Z,3.10
2018-12-14T00:43:40.080Z,3.53
2018-12-14T00:46:08.697Z,3.40
2018-12-14T00:48:37.287Z,3.00
2018-12-14T00:51:05.953Z,3.20
2018-12-14T00:53:35.410Z,3.63
2018-12-14T00:56:04.193Z,3.50
2018-12-14T00:58:32.884Z,3.03
2018-12-14T01:01:01.470Z,3.70
2018-12-14T01:03:30.377Z,3.47
2018-12-14T01:05:59.583Z,3.30
2018-12-14T01:08:28.186Z,3.47
2018-12-14T01:10:56.939Z,3.70
2018-12-14T01:13:25.754Z,3.50
2018-12-14T01:15:54.373Z,3.70
2018-12-14T01:18:23.056Z,3.80
2018-12-14T01:20:51.636Z,3.10
2018-12-14T01:23:20.210Z,3.60
2018-12-14T01:25:48.795Z,3.37
2018-12-14T01:28:17.435Z,3.53
2018-12-14T01:30:46.025Z,3.43
2018-12-14T01:33:14.605Z,3.33
2018-12-14T01:35:43.229Z,3.43
2018-12-14T01:38:11.846Z,3.47
2018-12-14T01:40:40.444Z,3.20
2018-12-14T01:43:09.088Z,3.30
2018-12-14T01:45:37.675Z,3.30
2018-12-14T01:48:06.284Z,3.27
2018-12-14T01:50:34.884Z,3.30
2018-12-14T01:53:03.499Z,3.33
2018-12-14T01:55:32.066Z,3.20
2018-12-14T01:58:00.871Z,2.93
2018-12-14T02:00:29.447Z,3.17
2018-12-14T02:02:58.044Z,3.37
2018-12-14T02:05:26.760Z,3.47
2018-12-14T02:07:55.392Z,3.30
2018-12-14T02:10:23.998Z,3.33
2018-12-14T02:12:52.676Z,3.10
2018-12-14T02:15:21.552Z,3.10
2018-12-14T02:17:50.391Z,3.63
2018-12-14T02:20:19.073Z,2.90
2018-12-14T02:22:47.658Z,3.33
2018-12-14T02:25:16.247Z,3.10
2018-12-14T02:27:44.831Z,3.50
2018-12-14T02:30:24.440Z,3.60
2018-12-14T02:32:53.041Z,3.10
2018-12-14T02:35:21.641Z,3.23
2018-12-14T02:37:50.447Z,3.63
2018-12-14T02:40:19.075Z,3.50
2018-12-14T02:42:47.783Z,3.00
2018-12-14T02:45:16.384Z,3.10
2018-12-14T02:47:45.028Z,3.10
2018-12-14T02:50:13.781Z,3.10
2018-12-14T02:52:42.383Z,3.20
2018-12-14T02:55:11.039Z,3.03
2018-12-14T02:57:39.610Z,3.23
2018-12-14T03:00:08.421Z,2.93
2018-12-14T03:02:37.077Z,3.10
2018-12-14T03:05:05.835Z,3.00
2018-12-14T03:07:34.476Z,3.00
2018-12-14T03:10:03.083Z,3.10
2018-12-14T03:12:31.676Z,2.97
2018-12-14T03:15:00.587Z,2.87
2018-12-14T03:17:29.320Z,2.70
2018-12-14T03:19:58.242Z,2.93
2018-12-14T03:22:26.888Z,3.20
2018-12-14T03:24:55.484Z,3.40
2018-12-14T03:27:24.237Z,3.30
2018-12-14T03:29:52.845Z,3.50
2018-12-14T03:32:21.453Z,3.17
2018-12-14T03:34:50.044Z,3.13
2018-12-14T03:37:18.651Z,3.10
2018-12-14T03:39:47.221Z,3.03
2018-12-14T03:42:15.865Z,2.90
2018-12-14T03:44:44.523Z,3.17
2018-12-14T03:47:13.111Z,3.13
2018-12-14T03:49:41.683Z,3.00
2018-12-14T03:52:10.343Z,3.27
2018-12-14T03:54:38.984Z,3.10
2018-12-14T03:57:07.574Z,2.87
2018-12-14T03:59:36.175Z,3.40
2018-12-14T04:02:04.909Z,3.00
2018-12-14T04:04:33.709Z,3.10
2018-12-14T04:07:02.529Z,2.73
2018-12-14T04:09:31.106Z,3.00
2018-12-14T04:11:59.743Z,3.20
2018-12-14T04:14:28.342Z,3.20
2018-12-14T04:16:57.029Z,2.97
2018-12-14T04:19:25.651Z,3.40
2018-12-14T04:21:54.261Z,3.10
2018-12-14T04:24:22.919Z,3.03
2018-12-14T04:26:51.482Z,2.87
2018-12-14T04:29:20.208Z,3.10
2018-12-14T04:31:48.926Z,2.80
2018-12-14T04:34:17.523Z,3.30
2018-12-14T04:36:46.130Z,3.10
2018-12-14T04:39:14.718Z,2.90
2018-12-14T04:41:43.298Z,3.00
2018-12-14T04:44:11.892Z,3.80
2018-12-14T04:46:40.496Z,3.13
2018-12-14T04:49:09.134Z,3.23
2018-12-14T04:51:37.741Z,3.40
2018-12-14T04:54:06.373Z,3.30
2018-12-14T04:56:34.993Z,2.97
2018-12-14T04:59:04.462Z,3.13
2018-12-14T05:01:33.983Z,2.70
2018-12-14T05:04:02.883Z,3.43
2018-12-14T05:06:31.713Z,3.17
2018-12-14T05:09:00.496Z,2.90
2018-12-14T05:11:29.114Z,3.30
2018-12-14T05:13:57.691Z,3.00
2018-12-14T05:16:26.310Z,3.07
2018-12-14T05:18:55.055Z,2.80
2018-12-14T05:21:23.631Z,2.67
2018-12-14T05:23:52.291Z,3.13
2018-12-14T05:26:20.907Z,2.67
2018-12-14T05:28:49.475Z,2.60
2018-12-14T05:31:18.117Z,2.80
2018-12-14T05:33:46.876Z,2.80
2018-12-14T05:36:15.645Z,3.07
2018-12-14T05:38:44.278Z,2.57
2018-12-14T05:41:12.885Z,2.70
2018-12-14T05:43:41.572Z,2.63
2018-12-14T05:46:10.364Z,2.50
2018-12-14T05:48:38.984Z,2.40
2018-12-14T05:51:07.592Z,3.00
2018-12-14T05:53:36.322Z,2.67
2018-12-14T05:56:04.979Z,2.73
2018-12-14T05:58:33.634Z,2.77
2018-12-14T06:01:02.358Z,2.90
2018-12-14T06:03:30.988Z,2.90
2018-12-14T06:05:59.651Z,2.67
2018-12-14T06:08:28.304Z,2.90
2018-12-14T06:10:56.982Z,2.70
2018-12-14T06:13:25.604Z,2.80
2018-12-14T06:15:54.355Z,2.60
2018-12-14T06:18:23.003Z,2.80
2018-12-14T06:20:51.675Z,2.60
2018-12-14T06:23:20.263Z,3.00
2018-12-14T06:25:48.854Z,2.67
2018-12-14T06:28:17.500Z,2.63
2018-12-14T06:30:46.111Z,2.30
2018-12-14T06:33:14.685Z,2.60
2018-12-14T06:35:43.359Z,2.53
2018-12-14T06:38:11.969Z,2.30
2018-12-14T06:40:40.535Z,2.70
2018-12-14T06:43:15.305Z,2.80
2018-12-14T06:45:40.122Z,2.83
2018-12-14T06:48:08.803Z,2.80
2018-12-14T06:50:37.464Z,3.20
2018-12-14T06:53:06.339Z,3.00
2018-12-14T06:55:34.963Z,2.80
2018-12-14T06:58:03.726Z,2.80
2018-12-14T07:00:32.316Z,2.80
2018-12-14T07:03:00.959Z,3.00
2018-12-14T07:05:29.568Z,3.40
2018-12-14T07:07:58.172Z,2.77
2018-12-14T07:10:27.130Z,3.00
2018-12-14T07:12:55.715Z,3.10
2018-12-14T07:15:24.359Z,2.97
2018-12-14T07:17:53.109Z,2.80
2018-12-14T07:20:21.699Z,3.00
2018-12-14T07:22:50.315Z,3.00
2018-12-14T07:25:18.962Z,2.70
2018-12-14T07:27:47.538Z,3.07
2018-12-14T07:30:16.119Z,2.90
2018-12-14T07:32:44.907Z,2.70
2018-12-14T07:35:13.514Z,3.30
2018-12-14T07:37:42.156Z,3.20
2018-12-14T07:40:10.758Z,2.70
2018-12-14T07:42:39.335Z,2.80
2018-12-14T07:45:08.114Z,2.83
2018-12-14T07:47:36.951Z,2.97
2018-12-14T07:50:06.284Z,2.83
2018-12-14T07:52:35.317Z,2.87
2018-12-14T07:55:04.120Z,2.87
2018-12-14T07:57:32.703Z,3.10
2018-12-14T08:00:01.511Z,2.90
2018-12-14T08:02:30.318Z,2.77
2018-12-14T08:04:58.936Z,3.00
2018-12-14T08:07:27.865Z,2.80
2018-12-14T08:09:56.696Z,2.80
2018-12-14T08:12:25.842Z,3.27
2018-12-14T08:14:54.445Z,3.13
2018-12-14T08:17:23.377Z,3.40
2018-12-14T08:19:51.962Z,3.00
2018-12-14T08:22:20.613Z,3.40
2018-12-14T08:24:49.265Z,3.37
2018-12-14T08:27:17.832Z,3.37
2018-12-14T08:29:46.524Z,3.17
2018-12-14T08:32:15.178Z,3.33
2018-12-14T08:34:43.944Z,2.97
2018-12-14T08:37:12.633Z,3.00
2018-12-14T08:39:41.238Z,2.80
2018-12-14T08:42:10.100Z,3.33
2018-12-14T08:44:38.715Z,2.83
2018-12-14T08:47:07.327Z,2.57
2018-12-14T08:49:35.898Z,2.97
2018-12-14T08:52:04.482Z,2.90
2018-12-14T08:54:33.452Z,3.00
2018-12-14T08:57:02.056Z,2.90
2018-12-14T08:59:30.626Z,3.10
2018-12-14T09:01:59.238Z,3.00
2018-12-14T09:04:27.846Z,2.70
2018-12-14T09:06:56.417Z,3.10
2018-12-14T09:09:25.018Z,2.90
2018-12-14T09:11:53.596Z,3.13
2018-12-14T09:14:22.215Z,3.67
2018-12-14T09:16:50.853Z,2.80
2018-12-14T09:19:19.447Z,3.07
2018-12-14T09:21:48.082Z,2.90
2018-12-14T09:24:16.703Z,2.80
2018-12-14T09:26:45.313Z,3.00
2018-12-14T09:29:14.142Z,2.83
2018-12-14T09:31:42.777Z,3.07
2018-12-14T09:34:11.380Z,2.90
2018-12-14T09:36:40.029Z,2.93
2018-12-14T09:39:08.688Z,2.90
2018-12-14T09:41:37.316Z,3.13
2018-12-14T09:44:05.945Z,3.00
2018-12-14T09:46:37.238Z,2.90
2018-12-14T09:49:05.359Z,2.60
2018-12-14T09:51:34.068Z,3.13
2018-12-14T09:54:02.678Z,2.80
2018-12-14T09:56:31.286Z,2.87
2018-12-14T09:58:59.927Z,2.70
2018-12-14T10:01:28.539Z,2.93
2018-12-14T10:03:57.634Z,2.60
2018-12-14T10:06:26.296Z,2.40
2018-12-14T10:08:54.891Z,2.30
2018-12-14T10:11:23.503Z,2.30
2018-12-14T10:13:52.112Z,2.20
2018-12-14T10:16:20.745Z,2.30
2018-12-14T10:18:50.214Z,2.40
2018-12-14T10:21:18.827Z,2.50
2018-12-14T10:23:47.467Z,2.13
2018-12-14T10:26:16.051Z,2.20
2018-12-14T10:28:44.643Z,2.07
2018-12-14T10:31:13.355Z,2.33
2018-12-14T10:33:41.943Z,2.30
2018-12-14T10:36:10.524Z,2.40
2018-12-14T10:38:39.121Z,2.20
2018-12-14T10:41:07.900Z,2.20
2018-12-14T10:43:37.103Z,2.30
2018-12-14T10:46:05.804Z,1.97
2018-12-14T10:48:34.380Z,2.03
2018-12-14T10:51:02.976Z,1.73
2018-12-14T10:53:31.602Z,1.57
2018-12-14T10:56:00.217Z,1.80
2018-12-14T10:58:28.875Z,1.60
2018-12-14T11:01:02.621Z,1.60
2018-12-14T11:03:31.312Z,1.80
2018-12-14T11:05:59.895Z,1.77
2018-12-14T11:08:28.637Z,1.97
2018-12-14T11:10:57.357Z,1.80
2018-12-14T11:13:25.979Z,1.80
2018-12-14T11:15:54.689Z,1.77
2018-12-14T11:18:23.400Z,1.87
2018-12-14T11:20:52.010Z,1.93
2018-12-14T11:23:20.619Z,1.83
2018-12-14T11:25:49.270Z,1.73
2018-12-14T11:28:18.026Z,2.10
2018-12-14T11:30:46.748Z,2.13
2018-12-14T11:33:15.434Z,1.93
2018-12-14T11:35:44.537Z,2.00
2018-12-14T11:38:13.198Z,2.13
2018-12-14T11:40:41.827Z,2.23
2018-12-14T11:43:10.455Z,2.50
2018-12-14T11:45:39.105Z,2.23
2018-12-14T11:48:07.770Z,2.37
2018-12-14T11:50:36.407Z,2.60
2018-12-14T11:53:05.056Z,2.53
2018-12-14T11:55:33.751Z,2.47
2018-12-14T11:58:02.353Z,2.43
2018-12-14T12:00:31.052Z,2.53
2018-12-14T12:02:59.631Z,2.53
2018-12-14T12:05:28.527Z,2.63
2018-12-14T12:07:57.431Z,2.37
2018-12-14T12:10:26.236Z,2.87
2018-12-14T12:12:54.881Z,2.57
2018-12-14T12:15:23.536Z,2.57
2018-12-14T12:17:52.195Z,2.77
2018-12-14T12:20:20.830Z,2.70
2018-12-14T12:22:49.494Z,2.43
2018-12-14T12:25:18.146Z,2.40
2018-12-14T12:27:52.991Z,2.70
2018-12-14T12:30:21.574Z,2.00
2018-12-14T12:32:50.287Z,2.50
2018-12-14T12:35:19.183Z,2.40
2018-12-14T12:37:48.429Z,2.33
2018-12-14T12:40:17.059Z,2.40
2018-12-14T12:42:45.621Z,2.20
2018-12-14T12:45:14.277Z,2.30
2018-12-14T12:47:42.843Z,2.90
2018-12-14T12:50:11.950Z,2.30
2018-12-14T12:52:40.646Z,2.17
2018-12-14T12:55:09.270Z,2.40
2018-12-14T12:57:37.975Z,2.63
2018-12-14T13:00:07.639Z,2.40
2018-12-14T13:02:36.360Z,2.43
2018-12-14T13:05:05.180Z,2.50
2018-12-14T13:07:33.926Z,3.00
2018-12-14T13:10:02.630Z,2.90
2018-12-14T13:12:31.448Z,2.70
2018-12-14T13:15:00.227Z,2.53
2018-12-14T13:17:28.893Z,2.40
2018-12-14T13:19:57.542Z,2.57
2018-12-14T13:22:26.156Z,2.50
2018-12-14T13:24:54.776Z,2.60
2018-12-14T13:27:23.377Z,2.43
2018-12-14T13:29:52.223Z,2.33
2018-12-14T13:32:21.168Z,2.30
2018-12-14T13:34:50.137Z,2.30
2018-12-14T13:37:19.079Z,2.43
2018-12-14T13:39:47.736Z,2.40
2018-12-14T13:42:16.398Z,2.33
2018-12-14T13:44:46.745Z,2.40
2018-12-14T13:47:15.510Z,2.80
2018-12-14T13:49:44.146Z,2.60
2018-12-14T13:52:12.752Z,2.40
2018-12-14T13:54:41.442Z,2.50
2018-12-14T13:57:10.274Z,2.37
2018-12-14T13:59:39.083Z,2.27
2018-12-14T14:02:07.809Z,2.60
2018-12-14T14:04:36.500Z,2.80
2018-12-14T14:07:05.898Z,2.50
2018-12-14T14:09:35.013Z,2.60
2018-12-14T14:12:03.658Z,2.50
2018-12-14T14:14:32.910Z,2.50
2018-12-14T14:17:01.936Z,2.63
2018-12-14T14:19:30.886Z,2.47
2018-12-14T14:21:59.760Z,2.90
2018-12-14T14:24:28.423Z,2.60
2018-12-14T14:26:57.042Z,2.53
2018-12-14T14:29:25.653Z,2.67
2018-12-14T14:31:54.319Z,2.37
2018-12-14T14:34:22.952Z,2.53
2018-12-14T14:36:51.540Z,2.70
2018-12-14T14:39:20.126Z,2.50
2018-12-14T14:41:48.796Z,2.60
2018-12-14T14:44:17.392Z,2.70
2018-12-14T14:46:46.114Z,2.93
2018-12-14T14:49:14.701Z,3.10
2018-12-14T14:51:43.629Z,2.60
2018-12-14T14:54:12.318Z,2.50
2018-12-14T14:56:40.937Z,3.00
2018-12-14T14:59:09.626Z,2.60
2018-12-14T15:01:38.509Z,2.50
2018-12-14T15:04:07.199Z,2.80
2018-12-14T15:06:35.817Z,3.03
2018-12-14T15:09:06.519Z,3.10
2018-12-14T15:11:35.368Z,3.00
2018-12-14T15:14:04.050Z,3.13
2018-12-14T15:16:32.733Z,3.33
2018-12-14T15:19:01.350Z,3.23
2018-12-14T15:21:29.948Z,3.00
2018-12-14T15:23:58.539Z,3.07
2018-12-14T15:26:27.333Z,3.00
2018-12-14T15:28:55.980Z,3.43
2018-12-14T15:31:24.600Z,3.27
2018-12-14T15:33:53.330Z,3.27
2018-12-14T15:36:22.134Z,3.30
2018-12-14T15:38:50.772Z,3.73
2018-12-14T15:41:19.440Z,3.13
2018-12-14T15:43:48.090Z,3.33
2018-12-14T15:46:17.100Z,6.23
2018-12-14T15:48:45.796Z,4.67
2018-12-14T15:51:14.521Z,3.83
2018-12-14T15:53:43.183Z,3.33
2018-12-14T15:56:11.895Z,3.67
2018-12-14T15:58:40.628Z,3.70
2018-12-14T16:01:09.339Z,3.30
2018-12-14T16:03:37.991Z,3.10
2018-12-14T16:06:06.722Z,3.23
2018-12-14T16:08:35.796Z,3.10
2018-12-14T16:11:04.552Z,3.30
2018-12-14T16:13:33.161Z,3.30
2018-12-14T16:16:02.452Z,3.20
2018-12-14T16:18:31.355Z,3.00
2018-12-14T16:21:00.235Z,3.60
2018-12-14T16:23:29.033Z,2.90
2018-12-14T16:25:57.691Z,3.53
2018-12-14T16:28:26.376Z,3.00
2018-12-14T16:30:55.021Z,3.53
2018-12-14T16:33:23.638Z,3.50
2018-12-14T16:35:52.317Z,3.63
2018-12-14T16:38:20.950Z,3.50
2018-12-14T16:40:49.663Z,3.40
2018-12-14T16:43:18.254Z,3.23
2018-12-14T16:45:53.493Z,2.93
2018-12-14T16:48:22.082Z,3.60
2018-12-14T16:50:50.671Z,3.53
2018-12-14T16:53:19.282Z,3.17
2018-12-14T16:55:47.876Z,3.40
2018-12-14T16:58:16.503Z,3.33
2018-12-14T17:00:45.166Z,3.50
2018-12-14T17:03:13.767Z,3.33
2018-12-14T17:05:42.418Z,3.27
2018-12-14T17:08:11.138Z,3.70
2018-12-14T17:10:39.750Z,3.53
2018-12-14T17:13:08.359Z,3.27
2018-12-14T17:15:36.967Z,3.80
2018-12-14T17:18:05.668Z,3.83
2018-12-14T17:20:34.266Z,3.50
2018-12-14T17:23:02.866Z,3.40
2018-12-14T17:25:31.533Z,3.70
2018-12-14T17:28:00.163Z,3.60
2018-12-14T17:30:28.770Z,3.77
2018-12-14T17:32:57.371Z,4.37
2018-12-14T17:35:26.578Z,3.70
2018-12-14T17:37:58.016Z,3.20
2018-12-14T17:40:26.629Z,3.60
2018-12-14T17:42:55.603Z,3.43
2018-12-14T17:45:24.189Z,4.07
2018-12-14T17:47:52.872Z,3.70
2018-12-14T17:50:21.505Z,3.90
2018-12-14T17:52:50.118Z,3.63
2018-12-14T17:55:18.728Z,4.03
2018-12-14T17:57:47.662Z,4.30
2018-12-14T18:00:16.281Z,4.00
2018-12-14T18:02:44.972Z,3.97
2018-12-14T18:05:13.625Z,4.20
2018-12-14T18:07:42.259Z,4.47
2018-12-14T18:10:10.925Z,4.27
2018-12-14T18:12:39.548Z,5.00
2018-12-14T18:15:08.187Z,5.60
2018-12-14T18:17:36.875Z,6.27
2018-12-14T18:20:05.879Z,6.00
2018-12-14T18:22:34.630Z,5.90
2018-12-14T18:25:03.595Z,6.57
2018-12-14T18:27:32.267Z,6.90
2018-12-14T18:30:01.063Z,6.70
2018-12-14T18:32:29.731Z,6.90
2018-12-14T18:34:58.344Z,7.43
2018-12-14T18:37:26.984Z,7.80
2018-12-14T18:39:56.001Z,6.97
2018-12-14T18:42:24.831Z,6.53
2018-12-14T18:44:53.461Z,7.10
2018-12-14T18:47:22.501Z,9.23
2018-12-14T18:49:51.244Z,7.53
2018-12-14T18:52:20.225Z,7.73
2018-12-14T18:54:48.875Z,6.70
2018-12-14T18:57:17.907Z,7.70
2018-12-14T18:59:47.001Z,7.17
2018-12-14T19:02:15.731Z,7.33
2018-12-14T19:04:44.412Z,8.23
2018-12-14T19:07:13.075Z,8.33
2018-12-14T19:09:41.916Z,7.80
2018-12-14T19:12:10.703Z,7.47
2018-12-14T19:14:39.374Z,7.40
2018-12-14T19:17:08.066Z,6.97
2018-12-14T19:19:36.679Z,7.27
2018-12-14T19:22:05.275Z,7.10
2018-12-14T19:24:34.227Z,6.53
2018-12-14T19:27:02.887Z,6.13
2018-12-14T19:29:31.579Z,6.10
2018-12-14T19:32:00.252Z,6.60
2018-12-14T19:34:31.556Z,6.20
2018-12-14T19:37:00.049Z,6.30
2018-12-14T19:39:28.951Z,6.10
2018-12-14T19:41:57.778Z,6.27
2018-12-14T19:44:26.998Z,6.43
2018-12-14T19:46:56.075Z,6.53
2018-12-14T19:49:24.696Z,5.93
2018-12-14T19:51:53.345Z,6.10
2018-12-14T19:54:22.101Z,6.17
2018-12-14T19:56:50.949Z,6.07
2018-12-14T19:59:19.582Z,6.10
2018-12-14T20:01:48.217Z,6.00
2018-12-14T20:04:16.925Z,7.30
2018-12-14T20:06:45.628Z,6.70
2018-12-14T20:09:14.237Z,6.40
2018-12-14T20:11:42.871Z,6.77
2018-12-14T20:14:11.659Z,6.40
2018-12-14T20:16:40.300Z,6.90
2018-12-14T20:19:08.938Z,6.60
2018-12-14T20:21:37.747Z,6.67
2018-12-14T20:24:06.816Z,6.77
2018-12-14T20:26:35.957Z,6.33
2018-12-14T20:29:04.620Z,6.30
2018-12-14T20:31:33.246Z,6.80
2018-12-14T20:34:01.940Z,6.50
2018-12-14T20:36:30.593Z,6.00
2018-12-14T20:39:00.164Z,5.77
2018-12-14T20:41:28.876Z,6.37
2018-12-14T20:43:57.689Z,5.43
2018-12-14T20:46:26.310Z,5.60
2018-12-14T20:48:54.928Z,5.73
2018-12-14T20:51:23.629Z,4.70
2018-12-14T20:53:52.697Z,6.07
2018-12-14T20:56:21.420Z,5.40
2018-12-14T20:58:50.067Z,5.40
2018-12-14T21:01:18.789Z,5.27
2018-12-14T21:03:47.751Z,4.60
2018-12-14T21:06:16.373Z,5.10
2018-12-14T21:08:45.040Z,4.70
2018-12-14T21:11:13.727Z,5.17
2018-12-14T21:13:42.671Z,4.90
2018-12-14T21:16:11.670Z,5.47
2018-12-14T21:18:40.676Z,4.53
2018-12-14T21:21:09.588Z,5.40
2018-12-14T21:23:38.260Z,5.60
2018-12-14T21:26:06.953Z,4.70
2018-12-14T21:28:35.700Z,4.93
2018-12-14T21:31:04.438Z,5.43
2018-12-14T21:33:33.092Z,4.23
2018-12-14T21:36:01.779Z,4.83
2018-12-14T21:38:30.491Z,4.30
2018-12-14T21:40:59.154Z,4.13
2018-12-14T21:43:27.851Z,4.53
2018-12-14T21:45:56.969Z,4.60
2018-12-14T21:48:25.634Z,4.50
2018-12-14T21:50:54.294Z,4.73
2018-12-14T21:53:23.313Z,5.03
2018-12-14T21:55:51.996Z,5.20
2018-12-14T21:58:20.681Z,4.83
2018-12-14T22:00:49.372Z,4.30
2018-12-14T22:03:18.099Z,4.07
2018-12-14T22:05:46.762Z,3.77
2018-12-14T22:08:15.451Z,4.67
2018-12-14T22:10:44.215Z,4.23
2018-12-14T22:13:15.796Z,3.97
2018-12-14T22:15:44.423Z,5.43
2018-12-14T22:18:13.119Z,5.63
2018-12-14T22:20:41.750Z,4.33
2018-12-14T22:23:10.529Z,4.17
2018-12-14T22:25:39.545Z,4.13
2018-12-14T22:28:08.398Z,3.83
2018-12-14T22:30:37.053Z,4.10
2018-12-14T22:33:05.976Z,4.67
2018-12-14T22:35:35.160Z,3.90
2018-12-14T22:38:03.853Z,4.30
2018-12-14T22:40:32.535Z,4.50
2018-12-14T22:43:01.652Z,3.93
2018-12-14T22:45:30.682Z,4.07
2018-12-14T22:47:59.295Z,3.70
2018-12-14T22:50:28.706Z,3.90
2018-12-14T22:52:57.524Z,4.07
2018-12-14T22:55:26.250Z,3.90
2018-12-14T22:57:54.952Z,3.93
2018-12-14T23:00:24.081Z,3.90
2018-12-14T23:02:52.758Z,4.10
2018-12-14T23:05:21.362Z,3.43
2018-12-14T23:07:49.995Z,3.87
2018-12-14T23:10:18.633Z,3.97
2018-12-14T23:12:47.553Z,3.90
2018-12-14T23:15:16.603Z,3.53
2018-12-14T23:17:45.254Z,3.97
2018-12-14T23:20:13.921Z,3.13
2018-12-14T23:22:42.562Z,3.73
2018-12-14T23:25:11.221Z,3.90
2018-12-14T23:27:39.831Z,3.37
2018-12-14T23:30:09.822Z,3.60
2018-12-14T23:32:38.459Z,3.20
2018-12-14T23:35:07.617Z,3.00
2018-12-14T23:37:36.260Z,3.17
2018-12-14T23:40:05.289Z,3.30
2018-12-14T23:42:34.065Z,3.37
2018-12-14T23:45:02.711Z,3.00
2018-12-14T23:47:31.339Z,3.03
2018-12-14T23:50:00.059Z,2.90
2018-12-14T23:52:29.434Z,3.20
2018-12-14T23:54:58.265Z,3.00
2018-12-14T23:57:27.549Z,3.20
2018-12-14T23:59:56.568Z,2.93
